Time;durP1;ratioP1;P1;durP2;ratioP2;P2;SDS_P1;SDS_P2;PMS_P1;PMS_P2;Temp;Humidity;BMP_temperature;BMP_pressure;BME280_temperature;BME280_humidity;BME280_pressure;Samples;Min_cycle;Max_cycle;Signal;HPM_P1;HPM_P2
2022/05/18 00:06:12;;;;;;;5.35;2.03;;;20.10;99.90;;;;;;6640978;89;22853;-80
2022/05/18 00:16:14;;;;;;;6.75;1.92;;;20.10;99.90;;;;;;6642548;89;20224;-79
2022/05/18 00:26:56;;;;;;;5.12;2.17;;;20.10;99.90;;;;;;6654805;78;20210;-77
2022/05/18 00:36:56;;;;;;;5.07;2.08;;;20.00;99.90;;;;;;6672309;88;20565;-80
2022/05/18 00:46:57;;;;;;;6.80;2.67;;;19.90;99.90;;;;;;6666581;88;20196;-78
2022/05/18 00:57:07;;;;;;;5.50;1.70;;;19.80;99.90;;;;;;6669968;88;20258;-80
2022/05/18 01:07:18;;;;;;;6.40;2.08;;;19.70;99.90;;;;;;6671587;88;20204;-77
2022/05/18 01:17:29;;;;;;;5.43;2.17;;;19.70;99.90;;;;;;6672929;88;20186;-82
2022/05/18 01:27:30;;;;;;;6.03;2.20;;;19.60;99.90;;;;;;6661175;88;20229;-78
2022/05/18 01:37:30;;;;;;;4.82;2.00;;;19.50;99.90;;;;;;6672581;88;20605;-78
2022/05/18 01:47:36;;;;;;;4.80;1.80;;;19.50;99.90;;;;;;6664652;88;20209;-77
2022/05/18 01:57:36;;;;;;;6.32;2.00;;;19.40;99.90;;;;;;6665716;88;20204;-79
2022/05/18 02:07:37;;;;;;;7.37;2.53;;;19.40;99.90;;;;;;6667780;88;20195;-78
2022/05/18 02:17:38;;;;;;;5.15;1.92;;;19.30;99.90;;;;;;6667280;88;20201;-79
2022/05/18 02:27:39;;;;;;;4.57;2.20;;;19.20;99.90;;;;;;6676722;88;20959;-78
2022/05/18 02:37:40;;;;;;;5.05;2.42;;;19.20;99.90;;;;;;6668432;88;20221;-79
2022/05/18 02:47:40;;;;;;;6.33;2.50;;;19.10;99.90;;;;;;6669751;88;20315;-79
2022/05/18 02:57:41;;;;;;;4.75;2.30;;;18.90;99.90;;;;;;6669866;88;20232;-79
2022/05/18 03:07:41;;;;;;;6.90;2.75;;;18.80;99.90;;;;;;6669252;88;20679;-80
2022/05/18 03:17:42;;;;;;;6.07;2.40;;;18.70;99.90;;;;;;6683594;88;20209;-79
2022/05/18 03:27:43;;;;;;;8.05;3.10;;;18.80;99.90;;;;;;6667039;88;20679;-79
2022/05/18 03:37:43;;;;;;;6.03;2.85;;;18.80;99.90;;;;;;6666492;88;20218;-79
2022/05/18 03:47:44;;;;;;;4.55;2.60;;;18.60;99.90;;;;;;6669821;88;20661;-79
2022/05/18 03:57:44;;;;;;;8.45;2.53;;;18.50;99.90;;;;;;6665981;89;20183;-80
2022/05/18 04:07:45;;;;;;;7.32;2.70;;;18.50;99.90;;;;;;6672319;88;20274;-78
2022/05/18 04:17:47;;;;;;;5.87;2.80;;;18.40;99.90;;;;;;6675696;88;20200;-80
2022/05/18 04:27:48;;;;;;;4.20;2.53;;;18.50;99.90;;;;;;6671114;88;20216;-79
2022/05/18 04:37:48;;;;;;;5.35;2.67;;;18.60;99.90;;;;;;6673559;88;20316;-78
2022/05/18 04:47:49;;;;;;;6.18;3.00;;;18.70;99.90;;;;;;6670174;89;20245;-78
2022/05/18 04:57:50;;;;;;;5.55;2.67;;;18.90;99.90;;;;;;6684282;88;20181;-80
2022/05/18 05:07:50;;;;;;;8.55;2.87;;;19.10;99.90;;;;;;6671615;88;20187;-79
2022/05/18 05:17:51;;;;;;;6.85;2.50;;;19.30;99.90;;;;;;6673587;88;20628;-79
2022/05/18 05:27:51;;;;;;;7.03;2.40;;;19.40;99.90;;;;;;6674425;88;20184;-80
2022/05/18 05:37:52;;;;;;;5.75;2.78;;;19.60;99.90;;;;;;6665553;88;20179;-75
2022/05/18 05:47:52;;;;;;;6.43;2.70;;;19.60;99.90;;;;;;6663582;88;20952;-76
2022/05/18 05:57:56;;;;;;;5.68;2.53;;;19.80;99.90;;;;;;6663442;88;20279;-77
2022/05/18 06:07:57;;;;;;;5.43;2.50;;;20.00;99.90;;;;;;6662085;89;20172;-78
2022/05/18 06:17:58;;;;;;;5.82;2.60;;;20.20;99.90;;;;;;6652658;89;20208;-79
2022/05/18 06:39:01;;;;;;;6.93;2.53;;;20.90;99.90;;;;;;6720193;88;20210;-81
2022/05/18 06:49:03;;;;;;;3.80;2.00;;;21.30;99.90;;;;;;6720006;88;20206;-82
2022/05/18 06:59:05;;;;;;;6.00;2.50;;;21.70;99.90;;;;;;6725243;88;20230;-81
2022/05/18 07:09:11;;;;;;;5.75;2.62;;;22.40;99.90;;;;;;6729161;88;20191;-82
2022/05/18 07:19:12;;;;;;;4.18;2.28;;;22.60;99.90;;;;;;6727026;88;20177;-82
2022/05/18 07:29:12;;;;;;;4.40;2.00;;;23.00;99.90;;;;;;6731511;88;20327;-82
2022/05/18 07:39:13;;;;;;;4.12;2.30;;;23.40;99.90;;;;;;6729055;88;20978;-82
2022/05/18 07:49:14;;;;;;;4.37;2.10;;;24.10;99.90;;;;;;6728914;88;20288;-81
2022/05/18 07:59:14;;;;;;;4.87;2.22;;;24.60;99.90;;;;;;6725299;88;20571;-82
2022/05/18 08:09:15;;;;;;;5.15;2.22;;;25.50;99.90;;;;;;6726536;88;20710;-82
2022/05/18 08:19:17;;;;;;;5.37;2.20;;;25.60;99.90;;;;;;6725286;88;20162;-82
2022/05/18 08:29:18;;;;;;;4.12;1.77;;;26.00;99.20;;;;;;6728623;88;20252;-82
2022/05/18 08:39:18;;;;;;;6.43;2.40;;;26.10;99.00;;;;;;6728465;88;20185;-84
2022/05/18 08:49:39;;;;;;;4.37;2.10;;;27.20;97.50;;;;;;6729554;88;20224;-82
2022/05/18 08:59:41;;;;;;;7.07;2.37;;;26.50;97.10;;;;;;6725849;88;20714;-82
2022/05/18 09:10:16;;;;;;;7.57;2.10;;;27.00;97.00;;;;;;6727360;88;20289;-83
2022/05/18 09:20:21;;;;;;;5.55;2.37;;;27.50;96.40;;;;;;6731458;88;20182;-82
2022/05/18 09:30:35;;;;;;;5.47;2.05;;;27.70;95.20;;;;;;6729299;88;20173;-82
2022/05/18 09:40:43;;;;;;;6.10;2.10;;;28.40;93.80;;;;;;6729817;88;20173;-83
2022/05/18 09:50:47;;;;;;;5.20;1.90;;;28.20;93.10;;;;;;6729469;88;20253;-83
2022/05/18 10:00:48;;;;;;;4.87;2.00;;;29.10;92.20;;;;;;6730059;88;20198;-83
2022/05/18 10:10:59;;;;;;;5.45;2.28;;;28.70;92.20;;;;;;6729191;88;20198;-83
2022/05/18 10:21:25;;;;;;;6.03;2.03;;;29.30;91.30;;;;;;6727461;88;20195;-83
2022/05/18 10:31:33;;;;;;;8.27;2.20;;;29.70;88.70;;;;;;6726715;88;20206;-82
2022/05/18 10:41:42;;;;;;;3.78;1.85;;;29.70;85.10;;;;;;6699227;88;20197;-83
2022/05/18 10:51:44;;;;;;;3.87;1.75;;;29.50;82.00;;;;;;6725437;88;20241;-83
2022/05/18 11:01:54;;;;;;;4.37;1.70;;;30.30;80.70;;;;;;6726574;88;20244;-83
2022/05/18 11:12:01;;;;;;;3.50;1.80;;;30.60;76.30;;;;;;6730183;88;20210;-83
2022/05/18 11:22:25;;;;;;;3.53;1.83;;;31.00;75.70;;;;;;6730378;88;20214;-83
2022/05/18 11:32:31;;;;;;;3.40;1.50;;;31.00;75.50;;;;;;6725029;88;20313;-83
2022/05/18 11:42:31;;;;;;;4.57;1.70;;;31.30;74.90;;;;;;6728826;88;20214;-83
2022/05/18 11:52:37;;;;;;;3.20;1.75;;;31.30;72.30;;;;;;6725778;88;20272;-83
2022/05/18 12:02:43;;;;;;;2.60;1.50;;;31.70;72.40;;;;;;6728381;88;20162;-83
2022/05/18 12:12:47;;;;;;;3.50;1.90;;;31.30;69.80;;;;;;6732266;88;20235;-84
2022/05/18 12:32:53;;;;;;;5.00;1.95;;;31.20;72.00;;;;;;6672840;89;20228;-79
2022/05/18 12:43:17;;;;;;;2.92;1.70;;;31.80;71.60;;;;;;6674462;88;20775;-79
2022/05/18 12:53:22;;;;;;;2.70;1.40;;;32.00;69.80;;;;;;6671678;88;20198;-78
2022/05/18 13:03:25;;;;;;;4.68;1.73;;;32.50;66.10;;;;;;6656463;89;20566;-79
2022/05/18 13:13:26;;;;;;;4.12;1.67;;;32.20;69.20;;;;;;6658042;89;20219;-79
2022/05/18 13:23:30;;;;;;;2.23;1.50;;;32.10;69.00;;;;;;6655878;88;20196;-78
2022/05/18 13:33:53;;;;;;;4.10;1.62;;;32.20;68.70;;;;;;6655115;88;20272;-78
2022/05/18 13:43:59;;;;;;;3.92;1.42;;;33.30;65.70;;;;;;6654076;89;20208;-78
2022/05/18 13:54:06;;;;;;;5.72;2.05;;;31.80;67.30;;;;;;6653805;89;20204;-79
2022/05/18 14:04:16;;;;;;;3.87;2.10;;;32.50;68.10;;;;;;6654308;89;20246;-79
2022/05/18 14:14:18;;;;;;;3.00;1.67;;;32.90;67.40;;;;;;6653169;89;20232;-79
2022/05/18 14:24:27;;;;;;;3.80;1.75;;;32.60;66.70;;;;;;6671001;89;20199;-79
2022/05/18 14:34:45;;;;;;;4.80;1.80;;;33.10;65.00;;;;;;6673712;88;20195;-79
2022/05/18 14:44:47;;;;;;;4.03;1.60;;;32.40;66.20;;;;;;6670739;88;20207;-79
2022/05/18 14:54:49;;;;;;;7.97;1.95;;;32.20;66.50;;;;;;6674544;89;20282;-78
2022/05/18 15:05:07;;;;;;;4.55;1.85;;;32.00;65.70;;;;;;6669837;88;20192;-78
2022/05/18 15:15:20;;;;;;;4.60;2.00;;;31.60;66.40;;;;;;6679929;88;20746;-79
2022/05/18 15:25:33;;;;;;;3.67;1.75;;;31.30;66.90;;;;;;6669632;88;20219;-79
2022/05/18 15:35:34;;;;;;;3.65;1.70;;;31.30;67.00;;;;;;6674544;88;20654;-78
2022/05/18 15:45:34;;;;;;;4.23;1.80;;;31.40;67.30;;;;;;6670641;88;20220;-79
2022/05/18 15:55:35;;;;;;;3.03;1.73;;;30.80;66.60;;;;;;6666444;88;20207;-78
2022/05/18 16:05:37;;;;;;;11.23;5.12;;;31.50;66.40;;;;;;6665066;89;20981;-78
2022/05/18 16:15:38;;;;;;;;;;;31.10;66.50;;;;;;6668445;88;20203;-78
2022/05/18 16:25:40;;;;;;;3.60;1.73;;;31.20;66.90;;;;;;6667167;88;20111;-77
2022/05/18 16:35:41;;;;;;;3.47;1.67;;;31.50;66.80;;;;;;6667180;88;20232;-78
2022/05/18 16:45:41;;;;;;;6.37;1.80;;;30.70;67.60;;;;;;6665383;88;20632;-77
2022/05/18 16:55:42;;;;;;;3.92;2.00;;;30.20;67.10;;;;;;6668899;88;20764;-77
2022/05/18 17:05:57;;;;;;;3.55;1.62;;;29.70;67.70;;;;;;6670150;89;20241;-79
2022/05/18 17:15:59;;;;;;;4.25;2.08;;;29.80;68.00;;;;;;6655245;89;20180;-78
2022/05/18 17:26:00;;;;;;;3.33;1.90;;;30.20;67.80;;;;;;6662063;89;20214;-79
2022/05/18 17:36:01;;;;;;;4.67;1.90;;;30.20;67.20;;;;;;6670533;89;20708;-78
2022/05/18 17:46:02;;;;;;;4.45;1.80;;;29.90;67.40;;;;;;6676423;88;20600;-78
2022/05/18 17:56:03;;;;;;;3.87;1.83;;;29.20;68.50;;;;;;6668283;89;20184;-78
2022/05/18 18:06:04;;;;;;;4.00;1.85;;;29.00;69.70;;;;;;6671445;88;20216;-79
2022/05/18 18:16:05;;;;;;;2.60;1.90;;;28.80;70.60;;;;;;6671018;88;20204;-79
2022/05/18 18:26:07;;;;;;;3.17;2.20;;;28.70;70.70;;;;;;6663204;78;20221;-78
2022/05/18 18:36:16;;;;;;;3.53;1.90;;;28.20;71.60;;;;;;6645551;89;20211;-79
2022/05/18 18:46:32;;;;;;;2.85;2.00;;;27.80;73.10;;;;;;6642968;89;20206;-80
2022/05/18 18:56:32;;;;;;;4.57;1.90;;;27.40;73.70;;;;;;6638096;88;20258;-80
2022/05/18 19:06:33;;;;;;;3.22;1.90;;;27.00;75.10;;;;;;6648639;88;20881;-78
2022/05/18 19:16:34;;;;;;;5.45;2.08;;;26.60;76.20;;;;;;6648139;89;20203;-79
2022/05/18 19:26:35;;;;;;;5.03;2.10;;;26.30;76.10;;;;;;6648652;89;20216;-80
2022/05/18 19:36:35;;;;;;;3.75;1.98;;;26.20;76.20;;;;;;6647983;89;20207;-79
2022/05/18 19:46:36;;;;;;;4.37;2.03;;;25.90;76.10;;;;;;6653870;89;20217;-79
2022/05/18 19:56:39;;;;;;;4.97;1.83;;;25.60;76.50;;;;;;6648836;89;20285;-80
2022/05/18 20:06:39;;;;;;;5.60;1.77;;;25.50;76.90;;;;;;6649347;89;20221;-80
2022/05/18 20:16:41;;;;;;;3.10;1.60;;;25.30;77.40;;;;;;6647619;89;20598;-79
2022/05/18 20:26:42;;;;;;;3.55;1.75;;;25.10;78.00;;;;;;6647887;89;20252;-78
2022/05/18 20:36:42;;;;;;;5.10;2.10;;;25.00;78.70;;;;;;6647868;89;20195;-79
2022/05/18 20:46:43;;;;;;;4.05;1.90;;;24.80;79.50;;;;;;6648312;89;20300;-76
2022/05/18 20:56:43;;;;;;;4.57;2.10;;;24.60;80.50;;;;;;6649001;89;20229;-77
2022/05/18 21:06:44;;;;;;;3.90;1.97;;;24.50;81.50;;;;;;6648026;89;20199;-78
2022/05/18 21:16:53;;;;;;;4.18;1.85;;;24.20;82.70;;;;;;6647473;89;21053;-78
2022/05/18 21:26:55;;;;;;;3.72;1.85;;;24.10;83.50;;;;;;6647791;89;20214;-79
2022/05/18 21:36:57;;;;;;;3.15;1.87;;;24.10;84.40;;;;;;6647019;89;20224;-77
2022/05/18 21:46:59;;;;;;;3.85;2.30;;;23.90;85.80;;;;;;6647337;89;20212;-78
2022/05/18 21:57:01;;;;;;;3.62;2.10;;;23.80;87.40;;;;;;6650236;89;20187;-78
2022/05/18 22:07:04;;;;;;;2.92;2.00;;;23.50;88.80;;;;;;6649318;89;20326;-78
2022/05/18 22:17:05;;;;;;;4.73;2.00;;;23.50;89.20;;;;;;6645458;89;20208;-78
2022/05/18 22:27:10;;;;;;;5.40;1.90;;;23.40;89.30;;;;;;6647584;89;20180;-78
2022/05/18 22:37:11;;;;;;;7.32;2.10;;;23.30;89.80;;;;;;6647613;89;20196;-79
2022/05/18 22:47:22;;;;;;;3.58;2.03;;;23.30;90.10;;;;;;6648901;89;20277;-78
2022/05/18 22:57:23;;;;;;;3.80;2.15;;;23.20;90.70;;;;;;6648299;88;20196;-79
2022/05/18 23:07:23;;;;;;;3.72;2.00;;;23.00;91.60;;;;;;6647872;89;20216;-77
2022/05/18 23:17:25;;;;;;;5.18;2.45;;;22.90;92.60;;;;;;6645182;89;20759;-78
2022/05/18 23:27:26;;;;;;;7.95;2.30;;;22.70;93.70;;;;;;6639714;89;20342;-79
2022/05/18 23:37:26;;;;;;;6.20;2.30;;;22.50;94.90;;;;;;6648374;89;20648;-78
2022/05/18 23:47:27;;;;;;;3.47;2.35;;;22.40;96.00;;;;;;6647872;89;20739;-79
2022/05/18 23:57:30;;;;;;;3.73;2.20;;;22.30;97.00;;;;;;6647869;89;20616;-79
